Time;durP1;ratioP1;P1;durP2;ratioP2;P2;SDS_P1;SDS_P2;PMS_P1;PMS_P2;Temp;Humidity;BMP_temperature;BMP_pressure;BME280_temperature;BME280_humidity;BME280_pressure;Samples;Min_cycle;Max_cycle;Signal;HPM_P1;HPM_P2
2020/12/31 00:02:00;;;;;;;1.27;1.02;;;14.60;58.80;;;;;;5033005;28;20379;-57
2020/12/31 00:04:26;;;;;;;1.10;1.00;;;14.60;58.80;;;;;;5033144;28;20361;-56
2020/12/31 00:06:52;;;;;;;0.93;0.82;;;14.60;58.80;;;;;;5033071;28;20067;-57
2020/12/31 00:09:18;;;;;;;2.15;1.10;;;14.60;58.80;;;;;;5032859;28;20491;-57
2020/12/31 00:11:43;;;;;;;3.63;1.30;;;14.70;59.50;;;;;;5034853;28;20091;-57
2020/12/31 00:14:09;;;;;;;1.83;1.00;;;14.60;58.90;;;;;;5032828;28;20484;-55
2020/12/31 00:16:35;;;;;;;1.10;1.00;;;14.50;58.90;;;;;;5015158;28;20039;-57
2020/12/31 00:19:01;;;;;;;1.63;1.13;;;14.50;58.90;;;;;;5032894;28;20033;-57
2020/12/31 00:21:26;;;;;;;1.45;1.30;;;14.50;58.90;;;;;;5032676;28;20025;-56
2020/12/31 00:23:52;;;;;;;2.05;1.60;;;14.50;58.90;;;;;;5033124;28;20086;-56
2020/12/31 00:26:18;;;;;;;1.42;1.05;;;14.50;58.90;;;;;;5032726;28;20098;-57
2020/12/31 00:28:43;;;;;;;1.48;1.13;;;14.40;58.90;;;;;;5032714;28;20037;-55
2020/12/31 00:31:09;;;;;;;1.55;1.20;;;14.40;58.90;;;;;;5032588;28;20022;-57
2020/12/31 00:33:35;;;;;;;2.15;1.40;;;14.50;58.90;;;;;;5032481;28;20021;-56
2020/12/31 00:36:01;;;;;;;1.45;1.35;;;14.50;59.00;;;;;;5032653;28;20411;-57
2020/12/31 00:38:26;;;;;;;2.05;1.23;;;14.50;59.00;;;;;;5032397;28;20029;-57
2020/12/31 00:40:52;;;;;;;2.58;1.27;;;14.50;59.00;;;;;;5032525;28;20108;-56
2020/12/31 00:43:18;;;;;;;0.82;0.82;;;14.40;59.00;;;;;;5032312;28;20045;-57
2020/12/31 00:45:44;;;;;;;1.48;1.38;;;14.50;59.00;;;;;;5014626;28;20041;-56
2020/12/31 00:48:09;;;;;;;1.70;1.10;;;14.40;59.00;;;;;;5014382;28;20068;-57
2020/12/31 00:50:35;;;;;;;2.03;1.30;;;14.40;59.00;;;;;;5032190;28;20071;-57
2020/12/31 00:53:01;;;;;;;1.75;1.35;;;14.40;59.00;;;;;;5032270;28;20033;-57
2020/12/31 00:55:27;;;;;;;1.50;1.40;;;14.40;59.00;;;;;;5032164;28;20116;-56
2020/12/31 00:57:53;;;;;;;2.28;1.17;;;14.40;59.10;;;;;;5032291;28;20108;-57
2020/12/31 01:00:18;;;;;;;1.65;1.15;;;14.40;59.10;;;;;;5032235;28;20048;-57
2020/12/31 01:02:44;;;;;;;1.42;1.20;;;14.30;59.00;;;;;;5032182;28;20041;-57
2020/12/31 01:05:10;;;;;;;2.97;1.23;;;14.40;59.10;;;;;;5014455;28;20522;-57
2020/12/31 01:07:36;;;;;;;1.48;1.30;;;14.30;59.00;;;;;;5032129;28;20424;-56
2020/12/31 01:10:05;;;;;;;2.08;1.38;;;14.30;59.10;;;;;;5032014;28;20026;-57
2020/12/31 01:12:30;;;;;;;1.63;1.20;;;14.30;59.10;;;;;;5033794;28;20065;-57
2020/12/31 01:14:56;;;;;;;1.58;1.17;;;14.30;59.10;;;;;;5014384;28;20061;-57
2020/12/31 01:17:24;;;;;;;2.38;1.48;;;14.30;59.10;;;;;;5014314;28;20083;-56
2020/12/31 01:19:50;;;;;;;1.52;1.20;;;14.30;59.10;;;;;;5031965;28;20025;-57
2020/12/31 01:22:16;;;;;;;1.45;1.35;;;14.30;59.10;;;;;;5031869;28;20479;-57
2020/12/31 01:24:41;;;;;;;1.40;1.10;;;14.30;59.10;;;;;;5031862;28;20028;-56
2020/12/31 01:27:07;;;;;;;1.60;1.25;;;14.30;59.10;;;;;;5031927;28;20388;-57
2020/12/31 01:29:32;;;;;;;1.30;1.20;;;14.10;59.10;;;;;;5031885;28;20021;-57
2020/12/31 01:31:58;;;;;;;1.30;1.20;;;14.20;59.10;;;;;;5031799;28;20480;-57
2020/12/31 01:34:24;;;;;;;2.03;1.33;;;14.30;59.20;;;;;;5031911;28;20533;-56
2020/12/31 01:36:53;;;;;;;2.10;1.20;;;14.20;59.20;;;;;;5031909;28;20137;-56
2020/12/31 01:39:19;;;;;;;1.92;1.30;;;14.20;59.20;;;;;;5013930;28;20464;-57
2020/12/31 01:41:45;;;;;;;1.55;1.45;;;14.20;59.20;;;;;;5013997;28;20107;-57
2020/12/31 01:44:11;;;;;;;1.55;1.30;;;14.20;59.20;;;;;;5031742;28;20057;-57
2020/12/31 01:46:39;;;;;;;2.55;1.10;;;14.20;59.20;;;;;;5013872;28;20438;-57
2020/12/31 01:49:07;;;;;;;1.30;1.17;;;14.20;59.30;;;;;;5031610;28;20018;-55
2020/12/31 01:51:36;;;;;;;1.30;1.20;;;14.20;59.20;;;;;;5013832;28;20030;-57
2020/12/31 01:54:03;;;;;;;1.52;1.00;;;14.20;59.30;;;;;;5031657;28;20045;-57
2020/12/31 01:56:30;;;;;;;0.95;0.90;;;14.10;59.30;;;;;;5031677;28;20505;-56
2020/12/31 01:58:56;;;;;;;1.10;0.90;;;14.10;59.30;;;;;;5033298;28;20025;-57
2020/12/31 02:01:22;;;;;;;1.30;1.20;;;14.10;59.30;;;;;;5035420;28;20792;-58
2020/12/31 02:03:49;;;;;;;1.48;1.15;;;14.10;59.30;;;;;;5035519;28;20045;-57
2020/12/31 02:06:15;;;;;;;1.20;1.10;;;14.10;59.30;;;;;;5035399;28;20024;-56
2020/12/31 02:08:44;;;;;;;2.65;0.90;;;14.10;59.30;;;;;;5035124;28;20029;-57
2020/12/31 02:11:11;;;;;;;1.10;1.05;;;14.10;59.40;;;;;;5017502;28;20501;-57
2020/12/31 02:13:36;;;;;;;1.70;1.13;;;14.10;59.40;;;;;;5019440;28;20148;-57
2020/12/31 02:16:03;;;;;;;1.10;0.93;;;14.10;59.40;;;;;;5017259;28;20112;-57
2020/12/31 02:18:28;;;;;;;1.13;1.10;;;14.10;59.40;;;;;;5035208;28;20029;-57
2020/12/31 02:20:56;;;;;;;2.03;1.20;;;14.10;59.40;;;;;;5035230;28;20495;-56
2020/12/31 02:23:21;;;;;;;1.30;1.13;;;14.10;59.40;;;;;;5017108;28;20052;-57
2020/12/31 02:25:47;;;;;;;1.20;1.10;;;14.10;59.50;;;;;;5035049;28;20025;-57
2020/12/31 02:28:12;;;;;;;1.25;0.98;;;14.10;59.50;;;;;;5035058;28;20037;-56
2020/12/31 02:30:38;;;;;;;1.70;1.23;;;14.10;59.50;;;;;;5017265;28;20032;-57
2020/12/31 02:33:03;;;;;;;1.85;1.48;;;14.10;59.50;;;;;;5034814;28;20030;-57
2020/12/31 02:35:29;;;;;;;1.90;1.63;;;14.00;59.50;;;;;;5034753;28;20025;-56
2020/12/31 02:37:54;;;;;;;1.67;1.00;;;14.00;59.50;;;;;;5034970;28;20058;-56
2020/12/31 02:40:20;;;;;;;1.40;0.90;;;14.00;59.50;;;;;;5017026;28;20069;-56
2020/12/31 02:42:46;;;;;;;1.30;1.20;;;14.00;59.50;;;;;;5016982;28;20038;-56
2020/12/31 02:45:11;;;;;;;1.00;0.90;;;14.00;59.50;;;;;;5016970;28;20044;-57
2020/12/31 02:47:40;;;;;;;1.13;0.90;;;14.00;59.50;;;;;;5034607;28;20064;-57
2020/12/31 02:50:06;;;;;;;1.20;1.10;;;14.00;59.50;;;;;;5016866;28;20426;-57
2020/12/31 02:52:31;;;;;;;0.93;0.73;;;14.00;59.50;;;;;;5034586;28;20025;-55
2020/12/31 02:54:57;;;;;;;0.98;0.90;;;14.00;59.50;;;;;;5034524;28;20075;-56
2020/12/31 02:57:23;;;;;;;1.88;1.15;;;14.00;59.60;;;;;;5034508;28;20067;-56
2020/12/31 02:59:48;;;;;;;2.22;1.23;;;14.00;59.60;;;;;;5034493;28;20040;-56
2020/12/31 03:02:14;;;;;;;1.00;0.90;;;13.90;59.50;;;;;;5034369;28;20017;-56
2020/12/31 03:04:39;;;;;;;1.50;0.90;;;13.90;59.50;;;;;;5016549;28;20021;-57
2020/12/31 03:07:05;;;;;;;1.52;0.90;;;13.90;59.60;;;;;;5016462;28;20029;-57
2020/12/31 03:09:30;;;;;;;1.33;0.80;;;13.90;59.60;;;;;;5016245;28;20032;-56
2020/12/31 03:11:56;;;;;;;1.63;1.10;;;13.90;59.60;;;;;;5018197;28;20051;-56
2020/12/31 03:14:21;;;;;;;1.20;0.90;;;13.90;59.60;;;;;;5034206;28;20550;-56
2020/12/31 03:16:47;;;;;;;1.67;1.10;;;13.90;59.60;;;;;;5016310;28;20037;-56
2020/12/31 03:19:13;;;;;;;1.23;0.90;;;13.90;59.50;;;;;;5034107;28;20084;-56
2020/12/31 03:21:38;;;;;;;1.15;1.05;;;13.90;59.60;;;;;;5033889;28;20488;-57
2020/12/31 03:24:04;;;;;;;1.38;1.13;;;13.90;59.60;;;;;;5034052;28;20020;-57
2020/12/31 03:26:29;;;;;;;1.05;0.77;;;13.90;59.60;;;;;;5033940;28;20037;-57
2020/12/31 03:28:55;;;;;;;1.17;0.93;;;13.90;59.60;;;;;;5033944;28;20047;-56
2020/12/31 03:31:20;;;;;;;1.50;1.10;;;13.80;59.60;;;;;;5033876;28;20175;-56
2020/12/31 03:33:46;;;;;;;1.52;1.25;;;13.90;59.60;;;;;;5034071;28;20032;-56
2020/12/31 03:36:12;;;;;;;1.83;1.10;;;13.90;59.60;;;;;;5033755;28;20036;-56
2020/12/31 03:38:37;;;;;;;1.63;0.90;;;13.80;59.60;;;;;;5033884;28;20029;-56
2020/12/31 03:41:03;;;;;;;0.70;0.70;;;13.80;59.70;;;;;;5033566;28;20159;-54
2020/12/31 03:43:28;;;;;;;0.85;0.82;;;13.80;59.60;;;;;;5033540;28;20033;-57
2020/12/31 03:45:54;;;;;;;1.35;1.00;;;13.80;59.70;;;;;;5033524;28;20507;-55
2020/12/31 03:48:26;;;;;;;0.98;0.80;;;13.80;59.70;;;;;;5033677;28;20514;-57
2020/12/31 03:50:58;;;;;;;1.50;1.00;;;13.80;59.70;;;;;;5015688;28;20064;-57
2020/12/31 03:53:23;;;;;;;0.95;0.90;;;13.80;59.70;;;;;;5033458;28;20109;-57
2020/12/31 03:55:49;;;;;;;1.10;0.98;;;13.80;59.70;;;;;;5033334;28;20104;-57
2020/12/31 03:58:14;;;;;;;1.30;1.20;;;13.80;59.70;;;;;;5033140;28;20022;-56
2020/12/31 04:00:40;;;;;;;0.70;0.70;;;13.80;59.70;;;;;;5033021;28;20025;-57
2020/12/31 04:03:05;;;;;;;0.80;0.80;;;13.80;59.70;;;;;;5033117;28;20717;-58
2020/12/31 04:05:31;;;;;;;1.25;0.90;;;13.80;59.70;;;;;;5033159;28;20021;-57
2020/12/31 04:07:56;;;;;;;1.20;0.90;;;13.80;59.70;;;;;;5015462;28;20108;-57
2020/12/31 04:10:22;;;;;;;1.00;0.70;;;13.70;59.70;;;;;;5033132;28;20109;-57
2020/12/31 04:12:47;;;;;;;1.95;0.82;;;13.70;59.70;;;;;;5034888;28;20057;-56
2020/12/31 04:15:13;;;;;;;0.98;0.98;;;13.70;59.80;;;;;;5015363;28;20021;-56
2020/12/31 04:17:39;;;;;;;1.45;0.65;;;13.70;59.70;;;;;;5032910;28;20048;-56
2020/12/31 04:20:05;;;;;;;1.90;1.08;;;13.70;59.70;;;;;;5015206;28;20112;-56
2020/12/31 04:22:31;;;;;;;1.27;1.00;;;13.70;59.70;;;;;;5014400;28;20033;-57
2020/12/31 04:24:56;;;;;;;1.27;1.00;;;13.70;59.70;;;;;;5032870;28;20045;-57
2020/12/31 04:27:22;;;;;;;1.52;1.10;;;13.70;59.70;;;;;;5032854;28;20492;-57
2020/12/31 04:29:48;;;;;;;1.48;0.80;;;13.70;59.80;;;;;;5014661;28;20029;-56
2020/12/31 04:32:13;;;;;;;1.23;1.10;;;13.70;59.80;;;;;;5032578;28;20025;-57
2020/12/31 04:34:39;;;;;;;0.98;0.90;;;13.70;59.80;;;;;;5032398;28;20390;-56
2020/12/31 04:37:05;;;;;;;1.15;1.02;;;13.70;59.80;;;;;;5032361;28;20018;-56
2020/12/31 04:39:30;;;;;;;1.65;1.27;;;13.70;59.80;;;;;;5032276;28;20036;-57
2020/12/31 04:41:57;;;;;;;1.38;1.23;;;13.70;59.80;;;;;;5032050;28;20060;-57
2020/12/31 04:44:23;;;;;;;1.00;1.00;;;13.70;60.50;;;;;;5032094;28;20079;-57
2020/12/31 04:46:56;;;;;;;2.15;0.90;;;13.70;59.90;;;;;;5032335;28;20029;-57
2020/12/31 04:49:35;;;;;;;0.90;0.75;;;13.70;60.00;;;;;;5032446;28;20025;-57
2020/12/31 04:52:01;;;;;;;0.82;0.75;;;13.70;60.00;;;;;;4998153;28;20031;-56
2020/12/31 04:54:27;;;;;;;2.00;0.95;;;13.80;60.00;;;;;;5032238;28;20023;-57
2020/12/31 04:56:54;;;;;;;1.20;0.95;;;13.80;59.90;;;;;;5032312;28;20021;-56
2020/12/31 04:59:20;;;;;;;1.30;0.88;;;13.90;59.70;;;;;;5031982;28;20025;-58
2020/12/31 05:01:45;;;;;;;1.40;0.93;;;13.90;59.60;;;;;;5032163;28;20036;-56
2020/12/31 05:04:12;;;;;;;1.02;0.90;;;13.90;59.50;;;;;;5032135;28;20029;-57
2020/12/31 05:06:39;;;;;;;2.60;1.00;;;14.10;59.60;;;;;;5031979;28;20053;-56
2020/12/31 05:09:16;;;;;;;1.23;1.00;;;13.90;59.40;;;;;;5014054;28;20028;-56
2020/12/31 05:11:43;;;;;;;1.80;1.00;;;13.90;59.40;;;;;;5031618;28;20025;-58
2020/12/31 05:14:09;;;;;;;1.38;0.98;;;13.90;59.50;;;;;;5033500;28;20053;-57
2020/12/31 05:16:35;;;;;;;3.13;1.40;;;13.80;59.50;;;;;;5031534;28;20384;-57
2020/12/31 05:19:00;;;;;;;1.73;1.10;;;13.80;59.60;;;;;;5031722;28;20095;-56
2020/12/31 05:21:26;;;;;;;1.55;0.98;;;13.80;59.70;;;;;;5013953;28;20052;-57
2020/12/31 05:23:51;;;;;;;1.73;1.52;;;13.80;59.80;;;;;;5031625;28;20025;-57
2020/12/31 05:26:30;;;;;;;1.40;1.20;;;13.80;59.90;;;;;;5031903;28;20470;-56
2020/12/31 05:28:57;;;;;;;1.58;1.10;;;13.70;59.90;;;;;;5031780;28;20506;-57
2020/12/31 05:31:29;;;;;;;1.67;1.17;;;13.70;59.90;;;;;;5031688;28;20028;-56
2020/12/31 05:33:55;;;;;;;1.13;1.02;;;13.70;60.00;;;;;;5015878;28;20029;-56
2020/12/31 05:36:25;;;;;;;2.85;1.13;;;13.70;59.90;;;;;;5018331;28;20033;-56
2020/12/31 05:38:57;;;;;;;1.50;1.40;;;13.70;59.90;;;;;;5017995;28;20468;-57
2020/12/31 05:41:33;;;;;;;1.50;1.15;;;13.70;60.00;;;;;;5035897;28;20048;-57
2020/12/31 05:44:05;;;;;;;2.17;1.00;;;13.70;60.00;;;;;;5017930;28;20056;-57
2020/12/31 05:46:31;;;;;;;1.35;1.20;;;13.60;60.00;;;;;;5018019;28;20049;-56
2020/12/31 05:49:05;;;;;;;2.08;1.38;;;13.70;60.10;;;;;;5035507;28;20017;-57
2020/12/31 05:51:33;;;;;;;1.38;0.95;;;13.70;60.20;;;;;;5035585;28;20023;-57
2020/12/31 05:54:13;;;;;;;1.73;1.05;;;13.70;60.30;;;;;;5017520;28;20031;-57
2020/12/31 05:56:43;;;;;;;1.52;1.33;;;13.60;60.20;;;;;;5017728;28;20029;-55
2020/12/31 05:59:24;;;;;;;1.50;1.35;;;13.60;60.30;;;;;;5035355;28;20033;-56
2020/12/31 06:01:58;;;;;;;1.52;1.25;;;13.60;60.30;;;;;;5035522;28;20037;-56
2020/12/31 06:04:29;;;;;;;1.17;1.00;;;13.60;60.40;;;;;;5035458;28;20414;-57
2020/12/31 06:07:02;;;;;;;1.70;1.27;;;13.60;60.80;;;;;;5035426;28;20021;-57
2020/12/31 06:09:29;;;;;;;1.20;1.10;;;13.70;60.90;;;;;;5035373;28;20120;-56
2020/12/31 06:12:08;;;;;;;1.60;0.82;;;13.80;60.80;;;;;;5017591;28;20029;-56
2020/12/31 06:14:36;;;;;;;1.47;0.90;;;13.90;60.60;;;;;;5015412;28;20038;-57
2020/12/31 06:17:05;;;;;;;0.88;0.88;;;14.10;60.40;;;;;;5015424;28;20048;-57
2020/12/31 06:19:33;;;;;;;0.90;0.90;;;14.20;60.00;;;;;;4997751;28;20026;-57
2020/12/31 06:22:01;;;;;;;2.72;0.90;;;14.30;59.70;;;;;;5015296;28;20044;-57
2020/12/31 06:24:40;;;;;;;0.90;0.90;;;14.50;59.60;;;;;;5015346;28;20029;-57
2020/12/31 06:27:11;;;;;;;1.10;0.95;;;14.50;59.40;;;;;;5015354;28;20026;-57
2020/12/31 06:29:45;;;;;;;;;;;14.60;59.30;;;;;;4998084;28;20492;-57
2020/12/31 06:32:35;;;;;;;1.60;0.90;;;14.70;59.10;;;;;;5015262;28;20006;-56
2020/12/31 06:35:09;;;;;;;1.00;0.73;;;14.90;58.90;;;;;;5015173;28;20114;-57
2020/12/31 06:37:35;;;;;;;1.13;0.60;;;15.00;58.70;;;;;;5014985;28;20068;-56
2020/12/31 06:40:24;;;;;;;1.20;0.80;;;15.00;58.60;;;;;;4997375;28;20087;-56
2020/12/31 06:43:06;;;;;;;1.27;0.98;;;15.00;58.70;;;;;;4997366;28;20091;-56
2020/12/31 06:45:34;;;;;;;1.48;1.00;;;15.00;58.70;;;;;;4996905;28;20030;-56
2020/12/31 06:48:00;;;;;;;1.13;0.77;;;15.10;58.60;;;;;;5014880;28;20018;-56
2020/12/31 06:50:56;;;;;;;1.00;0.85;;;15.20;58.70;;;;;;5014727;28;20030;-57
2020/12/31 06:53:32;;;;;;;1.13;1.05;;;15.10;58.60;;;;;;5014446;28;20028;-56
2020/12/31 06:56:00;;;;;;;0.60;0.57;;;15.10;58.60;;;;;;5014487;28;20043;-56
2020/12/31 06:58:26;;;;;;;1.20;0.80;;;15.10;58.70;;;;;;5014605;28;20026;-56
2020/12/31 07:00:53;;;;;;;1.20;0.85;;;15.10;58.70;;;;;;5014696;28;20053;-57
2020/12/31 07:03:40;;;;;;;1.30;0.93;;;15.10;58.70;;;;;;5014759;28;20073;-56
2020/12/31 07:06:21;;;;;;;1.00;0.90;;;15.10;58.70;;;;;;5014518;28;20026;-56
2020/12/31 07:08:51;;;;;;;1.10;0.80;;;15.10;58.70;;;;;;5014243;28;20395;-55
2020/12/31 07:11:37;;;;;;;1.27;0.73;;;15.10;58.70;;;;;;5014560;28;20049;-54
2020/12/31 07:14:17;;;;;;;1.23;1.10;;;15.20;58.70;;;;;;5014960;28;20782;-56
2020/12/31 07:16:55;;;;;;;1.13;0.68;;;15.10;58.60;;;;;;5016180;28;20029;-56
2020/12/31 07:19:21;;;;;;;1.48;0.93;;;15.20;58.60;;;;;;5034125;28;20499;-57
2020/12/31 07:21:50;;;;;;;1.52;1.10;;;15.20;58.60;;;;;;5033895;28;20034;-55
2020/12/31 07:24:27;;;;;;;1.10;0.80;;;15.20;58.50;;;;;;5016197;28;20163;-57
2020/12/31 07:26:57;;;;;;;1.00;0.90;;;15.20;58.50;;;;;;5033710;28;20017;-57
2020/12/31 07:29:33;;;;;;;0.75;0.75;;;15.30;59.20;;;;;;5033943;28;20039;-55
2020/12/31 07:32:01;;;;;;;0.90;0.80;;;15.30;58.40;;;;;;5033757;28;20156;-56
2020/12/31 07:34:32;;;;;;;1.00;0.80;;;15.30;58.40;;;;;;5033913;28;20101;-56
2020/12/31 07:36:57;;;;;;;1.48;1.02;;;15.30;58.40;;;;;;5015981;28;20040;-56
2020/12/31 07:39:23;;;;;;;1.02;0.90;;;15.20;58.40;;;;;;5033690;28;20026;-56
2020/12/31 07:41:49;;;;;;;0.90;0.77;;;15.40;58.40;;;;;;5033371;28;20048;-57
2020/12/31 07:44:15;;;;;;;1.42;0.93;;;15.30;58.30;;;;;;5015683;28;20025;-57
2020/12/31 07:46:42;;;;;;;0.98;0.88;;;15.30;58.30;;;;;;5015456;28;20022;-56
2020/12/31 07:49:11;;;;;;;1.02;0.80;;;15.40;58.40;;;;;;5033356;28;20029;-57
2020/12/31 07:51:38;;;;;;;0.87;0.83;;;15.40;58.40;;;;;;5033504;28;20032;-57
2020/12/31 07:54:03;;;;;;;1.20;1.10;;;15.30;58.40;;;;;;5033317;28;20037;-57
2020/12/31 07:56:31;;;;;;;1.17;0.90;;;15.30;58.30;;;;;;5032355;28;20441;-55
2020/12/31 07:59:00;;;;;;;1.52;1.15;;;15.40;58.30;;;;;;5015631;28;20029;-55
2020/12/31 08:01:26;;;;;;;1.45;1.23;;;15.30;58.20;;;;;;5033004;28;20079;-56
2020/12/31 08:03:52;;;;;;;2.10;1.38;;;15.40;58.10;;;;;;5033162;28;20400;-55
2020/12/31 08:06:27;;;;;;;1.33;1.23;;;15.40;58.10;;;;;;5032943;28;20546;-53
2020/12/31 08:08:53;;;;;;;1.75;1.20;;;15.40;58.10;;;;;;5032812;28;20451;-53
2020/12/31 08:11:18;;;;;;;1.17;1.08;;;15.40;58.00;;;;;;5032958;28;20113;-56
2020/12/31 08:13:45;;;;;;;1.25;1.10;;;15.40;58.00;;;;;;5034773;28;20104;-55
2020/12/31 08:16:14;;;;;;;1.50;1.20;;;15.40;58.00;;;;;;5032889;28;20537;-57
2020/12/31 08:18:41;;;;;;;1.60;1.50;;;15.50;58.10;;;;;;5032749;28;20029;-57
2020/12/31 08:21:07;;;;;;;1.48;1.15;;;15.40;58.00;;;;;;5032727;28;20025;-56
2020/12/31 08:23:40;;;;;;;2.00;1.40;;;15.50;58.00;;;;;;5032463;28;20053;-55
2020/12/31 08:26:13;;;;;;;2.65;1.50;;;15.50;57.70;;;;;;5032581;28;20113;-56
2020/12/31 08:28:38;;;;;;;3.50;1.67;;;15.60;57.70;;;;;;5032714;28;20099;-56
2020/12/31 08:31:15;;;;;;;1.88;1.70;;;15.50;57.70;;;;;;5032550;28;20021;-55
2020/12/31 08:33:42;;;;;;;1.85;1.73;;;15.50;58.40;;;;;;5032613;28;20037;-56
2020/12/31 08:36:08;;;;;;;1.92;1.45;;;15.50;58.00;;;;;;5032451;28;20030;-56
2020/12/31 08:38:39;;;;;;;5.15;2.10;;;15.50;58.00;;;;;;5013956;28;20025;-53
2020/12/31 08:41:08;;;;;;;6.72;1.83;;;15.50;58.10;;;;;;5013320;28;20075;-56
2020/12/31 08:43:38;;;;;;;2.90;1.57;;;15.50;58.20;;;;;;5031713;28;20045;-54
2020/12/31 08:46:20;;;;;;;2.17;1.60;;;15.50;58.40;;;;;;5031991;28;20060;-55
2020/12/31 08:48:53;;;;;;;2.97;1.90;;;15.50;58.60;;;;;;5031648;28;20026;-55
2020/12/31 08:51:19;;;;;;;3.72;1.52;;;15.50;58.50;;;;;;5031744;28;20361;-56
2020/12/31 08:53:53;;;;;;;5.63;2.20;;;15.50;58.60;;;;;;5032050;28;20032;-56
2020/12/31 08:56:20;;;;;;;5.03;1.42;;;15.50;58.60;;;;;;5031843;28;20041;-54
2020/12/31 08:58:46;;;;;;;4.28;1.75;;;15.40;58.60;;;;;;5032233;28;20384;-56
2020/12/31 09:01:26;;;;;;;3.03;1.77;;;15.50;58.70;;;;;;5032093;28;20030;-56
2020/12/31 09:04:17;;;;;;;7.13;2.00;;;15.50;58.70;;;;;;5032122;28;20493;-56
2020/12/31 09:06:57;;;;;;;5.38;2.33;;;15.40;58.30;;;;;;5032042;28;20017;-55
2020/12/31 09:09:26;;;;;;;3.50;2.30;;;15.40;58.40;;;;;;5032093;28;20116;-54
2020/12/31 09:11:58;;;;;;;4.32;2.25;;;15.40;58.60;;;;;;5014096;28;20021;-56
2020/12/31 09:14:38;;;;;;;3.33;2.53;;;15.40;58.70;;;;;;5016100;28;20511;-55
2020/12/31 09:17:23;;;;;;;;;;;15.50;58.50;;;;;;5032313;28;20033;-51
2020/12/31 09:19:52;;;;;;;3.97;1.90;;;15.60;58.30;;;;;;5031818;28;19912;-53
2020/12/31 09:22:19;;;;;;;5.25;2.70;;;15.60;58.20;;;;;;5013751;28;20068;-54
2020/12/31 09:24:45;;;;;;;2.28;2.00;;;15.70;58.30;;;;;;5013953;28;20091;-52
2020/12/31 09:27:10;;;;;;;6.63;2.45;;;15.70;58.00;;;;;;5013990;28;20451;-54
2020/12/31 09:29:36;;;;;;;4.45;2.55;;;15.70;58.10;;;;;;5031855;28;20040;-55
2020/12/31 09:32:02;;;;;;;5.75;2.85;;;15.80;57.60;;;;;;5031656;28;20100;-59
2020/12/31 09:34:27;;;;;;;2.65;2.45;;;15.80;57.30;;;;;;5031841;28;20071;-56
2020/12/31 09:37:00;;;;;;;3.30;2.67;;;15.90;57.40;;;;;;5014100;28;20030;-56
2020/12/31 09:39:26;;;;;;;4.90;2.13;;;15.90;57.30;;;;;;5031555;28;20075;-55
2020/12/31 09:41:52;;;;;;;2.60;1.98;;;15.90;57.00;;;;;;5031417;28;20030;-54
2020/12/31 09:44:18;;;;;;;4.97;2.78;;;15.90;57.00;;;;;;5031620;28;20109;-55
2020/12/31 09:46:43;;;;;;;2.38;1.98;;;15.90;57.00;;;;;;5031815;28;20100;-55
2020/12/31 09:49:09;;;;;;;3.42;2.50;;;15.90;56.90;;;;;;5031463;28;20391;-54
2020/12/31 09:51:36;;;;;;;3.40;2.33;;;16.00;56.90;;;;;;5013980;28;20033;-56
2020/12/31 09:54:01;;;;;;;4.45;2.13;;;16.00;57.00;;;;;;5031182;28;20398;-55
2020/12/31 09:56:30;;;;;;;2.88;2.03;;;16.00;56.90;;;;;;5031613;28;20026;-55
2020/12/31 09:58:56;;;;;;;2.15;1.63;;;16.10;56.90;;;;;;5031003;28;20021;-55
2020/12/31 10:01:22;;;;;;;3.15;2.00;;;16.10;57.00;;;;;;5029607;28;20036;-55
2020/12/31 10:03:48;;;;;;;4.90;2.22;;;16.10;56.90;;;;;;5029665;28;20501;-56
2020/12/31 10:06:14;;;;;;;3.90;2.08;;;16.10;57.00;;;;;;5012969;28;20021;-56
2020/12/31 10:08:42;;;;;;;3.55;1.75;;;16.10;57.10;;;;;;5031365;28;20512;-56
2020/12/31 10:11:08;;;;;;;3.70;2.25;;;16.10;57.00;;;;;;5031477;28;20040;-55
2020/12/31 10:13:34;;;;;;;2.88;1.90;;;16.10;57.10;;;;;;5033349;28;20657;-56
2020/12/31 10:16:02;;;;;;;4.97;1.80;;;16.20;57.20;;;;;;5031475;28;20029;-56
2020/12/31 10:18:29;;;;;;;1.83;1.70;;;16.20;57.20;;;;;;5031478;28;20400;-56
2020/12/31 10:20:55;;;;;;;4.80;2.15;;;16.20;57.20;;;;;;5034470;28;20028;-55
2020/12/31 10:23:20;;;;;;;2.63;2.20;;;16.20;57.20;;;;;;5033394;28;20033;-56
2020/12/31 10:25:50;;;;;;;2.35;1.83;;;16.20;57.40;;;;;;5033272;28;20021;-55
2020/12/31 10:28:17;;;;;;;4.10;2.13;;;16.20;57.30;;;;;;5033974;28;20053;-56
2020/12/31 10:30:43;;;;;;;3.05;2.10;;;16.20;57.20;;;;;;5034804;28;20311;-55
2020/12/31 10:33:09;;;;;;;3.58;2.28;;;16.20;57.30;;;;;;5034989;28;20065;-55
2020/12/31 10:35:34;;;;;;;3.30;2.15;;;16.20;57.30;;;;;;5034855;28;20021;-53
2020/12/31 10:38:00;;;;;;;2.90;2.15;;;16.20;57.40;;;;;;5034848;28;20493;-57
2020/12/31 10:40:25;;;;;;;2.42;1.90;;;16.20;57.30;;;;;;5034866;28;20594;-56
2020/12/31 10:42:51;;;;;;;3.10;2.80;;;16.20;57.20;;;;;;5034611;28;20037;-55
2020/12/31 10:45:17;;;;;;;3.13;1.83;;;16.20;57.20;;;;;;5034741;28;20026;-56
2020/12/31 10:47:42;;;;;;;4.78;2.00;;;16.20;57.20;;;;;;5034577;28;20079;-56
2020/12/31 10:50:08;;;;;;;3.33;2.33;;;16.20;57.00;;;;;;5034563;28;20029;-58
2020/12/31 10:52:33;;;;;;;4.03;2.40;;;16.30;57.10;;;;;;5016810;28;20087;-55
2020/12/31 10:54:59;;;;;;;3.03;2.30;;;16.20;57.10;;;;;;5034513;28;20701;-55
2020/12/31 10:57:25;;;;;;;4.10;2.58;;;16.30;58.60;;;;;;5034521;28;20025;-55
2020/12/31 10:59:52;;;;;;;3.03;2.42;;;16.30;59.90;;;;;;5016573;28;20430;-56
2020/12/31 11:02:17;;;;;;;3.85;2.30;;;16.40;60.30;;;;;;5016589;28;20476;-56
2020/12/31 11:04:43;;;;;;;2.70;2.17;;;16.30;61.10;;;;;;5016596;28;20072;-54
2020/12/31 11:07:10;;;;;;;3.83;2.40;;;16.20;61.90;;;;;;5034219;28;20029;-56
2020/12/31 11:09:36;;;;;;;2.97;2.55;;;16.20;62.10;;;;;;5034330;28;20045;-57
2020/12/31 11:12:02;;;;;;;2.97;1.90;;;16.20;62.20;;;;;;5034252;28;20653;-57
2020/12/31 11:14:27;;;;;;;2.90;2.40;;;16.20;63.10;;;;;;5036005;28;20103;-58
2020/12/31 11:16:53;;;;;;;2.40;2.20;;;16.20;63.20;;;;;;5034167;28;20439;-57
2020/12/31 11:19:19;;;;;;;2.88;2.50;;;16.20;63.70;;;;;;5016381;28;20040;-56
2020/12/31 11:21:45;;;;;;;3.80;2.67;;;16.20;63.90;;;;;;5033994;28;20025;-57
2020/12/31 11:24:11;;;;;;;3.10;2.40;;;16.20;63.30;;;;;;5033918;28;20383;-57
2020/12/31 11:26:37;;;;;;;2.88;2.45;;;16.20;64.60;;;;;;5034020;28;20022;-56
2020/12/31 11:29:03;;;;;;;2.90;2.40;;;16.20;65.40;;;;;;5033865;28;20029;-57
2020/12/31 11:31:30;;;;;;;2.97;2.08;;;16.20;65.00;;;;;;5032501;28;20117;-56
2020/12/31 11:33:56;;;;;;;4.07;2.70;;;16.20;64.50;;;;;;5033867;28;20075;-56
2020/12/31 11:36:25;;;;;;;4.68;2.80;;;16.10;65.80;;;;;;5033680;28;20024;-57
2020/12/31 11:38:51;;;;;;;3.88;2.85;;;16.10;66.00;;;;;;5015824;28;20391;-57
2020/12/31 11:41:17;;;;;;;2.58;2.38;;;16.10;65.20;;;;;;5015769;28;20026;-57
2020/12/31 11:43:43;;;;;;;4.13;2.90;;;16.10;64.60;;;;;;5033366;28;20380;-57
2020/12/31 11:46:09;;;;;;;3.05;2.45;;;16.00;66.20;;;;;;5033585;28;20026;-57
2020/12/31 11:48:35;;;;;;;2.97;2.67;;;16.00;66.80;;;;;;5015500;28;20064;-57
2020/12/31 11:51:07;;;;;;;5.15;2.65;;;15.90;66.60;;;;;;5015755;28;20052;-58
2020/12/31 11:53:32;;;;;;;3.08;2.40;;;15.90;66.70;;;;;;5015202;28;20060;-57
2020/12/31 11:56:00;;;;;;;5.15;2.80;;;15.90;68.00;;;;;;5033434;28;20044;-58
2020/12/31 11:58:26;;;;;;;2.97;2.30;;;15.80;67.30;;;;;;5015579;28;20491;-57
2020/12/31 12:00:52;;;;;;;5.60;2.65;;;15.80;67.40;;;;;;5033116;28;20396;-56
2020/12/31 12:03:17;;;;;;;3.00;2.55;;;15.80;68.30;;;;;;5015376;28;20044;-57
2020/12/31 12:05:43;;;;;;;3.10;2.50;;;15.80;67.90;;;;;;5033240;28;20030;-56
2020/12/31 12:08:09;;;;;;;4.75;2.75;;;15.80;67.70;;;;;;5033181;28;20030;-58
2020/12/31 12:10:35;;;;;;;5.55;3.00;;;15.80;67.90;;;;;;5033144;28;20049;-55
2020/12/31 12:13:00;;;;;;;12.98;3.63;;;15.80;67.40;;;;;;5034851;28;20933;-55
2020/12/31 12:15:26;;;;;;;9.00;4.22;;;15.80;67.60;;;;;;5015296;28;20028;-55
2020/12/31 12:17:52;;;;;;;8.90;3.47;;;15.80;67.70;;;;;;5014385;28;20084;-52
2020/12/31 12:20:18;;;;;;;14.90;3.70;;;15.80;67.60;;;;;;5032604;28;20155;-53
2020/12/31 12:22:44;;;;;;;15.40;4.20;;;15.80;67.50;;;;;;5032839;28;20037;-53
2020/12/31 12:25:11;;;;;;;8.95;3.72;;;15.80;67.60;;;;;;5015166;28;20379;-56
2020/12/31 12:27:37;;;;;;;10.70;3.92;;;15.80;67.40;;;;;;5015121;28;20026;-55
2020/12/31 12:30:07;;;;;;;7.20;3.97;;;15.80;67.40;;;;;;5015414;28;20080;-54
2020/12/31 12:32:33;;;;;;;8.15;4.43;;;15.80;67.20;;;;;;5032992;28;20014;-55
2020/12/31 12:34:59;;;;;;;13.82;4.25;;;15.80;67.40;;;;;;5032598;28;20124;-55
2020/12/31 12:37:25;;;;;;;6.10;3.92;;;15.80;67.20;;;;;;5014962;28;20415;-55
2020/12/31 12:39:51;;;;;;;9.35;3.42;;;15.80;67.50;;;;;;5032584;28;20045;-57
2020/12/31 12:42:16;;;;;;;7.30;4.30;;;15.80;67.00;;;;;;5014497;28;20026;-56
2020/12/31 12:44:42;;;;;;;7.78;4.85;;;15.80;67.20;;;;;;5032569;28;20289;-58
2020/12/31 12:47:07;;;;;;;6.82;4.60;;;15.80;67.50;;;;;;5014685;28;20113;-56
2020/12/31 12:49:33;;;;;;;8.98;4.40;;;15.80;68.00;;;;;;5014513;28;20526;-55
2020/12/31 12:52:02;;;;;;;8.85;5.28;;;15.80;67.80;;;;;;5014573;28;20040;-55